sensor_id;sensor_type;location;lat;lon;timestamp;temperature;humidity
22430;DHT22;11382;48.086;11.632;2024-01-30T00:01:13;-0.40;99.90
22430;DHT22;11382;48.086;11.632;2024-01-30T00:03:42;-0.60;99.90
22430;DHT22;11382;48.086;11.632;2024-01-30T00:06:11;-0.70;99.90
22430;DHT22;11382;48.086;11.632;2024-01-30T00:08:39;-0.60;99.90
22430;DHT22;11382;48.086;11.632;2024-01-30T00:11:07;-0.70;99.90
22430;DHT22;11382;48.086;11.632;2024-01-30T00:13:37;-0.80;99.90
22430;DHT22;11382;48.086;11.632;2024-01-30T00:16:05;-0.80;99.90
22430;DHT22;11382;48.086;11.632;2024-01-30T00:18:33;-0.80;99.90
22430;DHT22;11382;48.086;11.632;2024-01-30T00:21:01;-0.80;99.90
22430;DHT22;11382;48.086;11.632;2024-01-30T00:23:30;-0.80;99.90
22430;DHT22;11382;48.086;11.632;2024-01-30T00:25:58;-0.60;99.90
22430;DHT22;11382;48.086;11.632;2024-01-30T00:28:26;-0.60;99.90
22430;DHT22;11382;48.086;11.632;2024-01-30T00:30:55;-0.60;99.90
22430;DHT22;11382;48.086;11.632;2024-01-30T00:33:23;-0.50;99.90
22430;DHT22;11382;48.086;11.632;2024-01-30T00:35:51;-0.60;99.90
22430;DHT22;11382;48.086;11.632;2024-01-30T00:38:19;-0.60;99.90
22430;DHT22;11382;48.086;11.632;2024-01-30T00:40:47;-0.80;99.90
22430;DHT22;11382;48.086;11.632;2024-01-30T00:43:15;-0.60;99.90
22430;DHT22;11382;48.086;11.632;2024-01-30T00:45:44;-0.60;99.90
22430;DHT22;11382;48.086;11.632;2024-01-30T00:48:13;-0.60;99.90
22430;DHT22;11382;48.086;11.632;2024-01-30T00:50:41;-0.60;99.90
22430;DHT22;11382;48.086;11.632;2024-01-30T00:53:09;-0.60;99.90
22430;DHT22;11382;48.086;11.632;2024-01-30T00:55:37;-0.70;99.90
22430;DHT22;11382;48.086;11.632;2024-01-30T00:58:05;-0.80;99.90
22430;DHT22;11382;48.086;11.632;2024-01-30T01:00:33;-0.80;99.90
22430;DHT22;11382;48.086;11.632;2024-01-30T01:03:02;-1.00;99.90
22430;DHT22;11382;48.086;11.632;2024-01-30T01:05:31;-1.00;99.90
22430;DHT22;11382;48.086;11.632;2024-01-30T01:07:59;-1.00;99.90
22430;DHT22;11382;48.086;11.632;2024-01-30T01:10:27;-1.10;99.90
22430;DHT22;11382;48.086;11.632;2024-01-30T01:12:55;-1.10;99.90
22430;DHT22;11382;48.086;11.632;2024-01-30T01:15:24;-1.20;99.90
22430;DHT22;11382;48.086;11.632;2024-01-30T01:17:56;-1.20;99.90
22430;DHT22;11382;48.086;11.632;2024-01-30T01:20:24;-1.20;99.90
22430;DHT22;11382;48.086;11.632;2024-01-30T01:22:53;-1.30;99.90
22430;DHT22;11382;48.086;11.632;2024-01-30T01:25:21;-1.30;99.90
22430;DHT22;11382;48.086;11.632;2024-01-30T01:27:49;-1.30;99.90
22430;DHT22;11382;48.086;11.632;2024-01-30T01:30:19;-1.30;99.90
22430;DHT22;11382;48.086;11.632;2024-01-30T01:32:49;-1.20;99.90
22430;DHT22;11382;48.086;11.632;2024-01-30T01:35:22;-1.20;99.90
22430;DHT22;11382;48.086;11.632;2024-01-30T01:37:53;-1.30;99.90
22430;DHT22;11382;48.086;11.632;2024-01-30T01:40:23;-1.40;99.90
22430;DHT22;11382;48.086;11.632;2024-01-30T01:42:52;-1.50;99.90
22430;DHT22;11382;48.086;11.632;2024-01-30T01:45:21;-1.50;99.90
22430;DHT22;11382;48.086;11.632;2024-01-30T01:47:51;-1.50;99.90
22430;DHT22;11382;48.086;11.632;2024-01-30T01:50:20;-1.50;99.90
22430;DHT22;11382;48.086;11.632;2024-01-30T01:52:50;-1.50;99.90
22430;DHT22;11382;48.086;11.632;2024-01-30T01:55:21;-1.60;99.90
22430;DHT22;11382;48.086;11.632;2024-01-30T01:57:53;-1.60;99.90
22430;DHT22;11382;48.086;11.632;2024-01-30T02:00:21;-1.60;99.90
22430;DHT22;11382;48.086;11.632;2024-01-30T02:02:49;-1.60;99.90
22430;DHT22;11382;48.086;11.632;2024-01-30T02:05:18;-1.60;99.90
22430;DHT22;11382;48.086;11.632;2024-01-30T02:07:46;-1.70;99.90
22430;DHT22;11382;48.086;11.632;2024-01-30T02:10:15;-1.60;99.90
22430;DHT22;11382;48.086;11.632;2024-01-30T02:12:44;-1.60;99.90
22430;DHT22;11382;48.086;11.632;2024-01-30T02:15:13;-1.60;99.90
22430;DHT22;11382;48.086;11.632;2024-01-30T02:17:41;-1.70;99.90
22430;DHT22;11382;48.086;11.632;2024-01-30T02:20:10;-1.70;99.90
22430;DHT22;11382;48.086;11.632;2024-01-30T02:22:41;-1.50;99.90
22430;DHT22;11382;48.086;11.632;2024-01-30T02:25:10;-1.40;99.90
22430;DHT22;11382;48.086;11.632;2024-01-30T02:27:38;-1.30;99.90
22430;DHT22;11382;48.086;11.632;2024-01-30T02:30:08;-1.30;99.90
22430;DHT22;11382;48.086;11.632;2024-01-30T02:32:36;-1.30;99.90
22430;DHT22;11382;48.086;11.632;2024-01-30T02:35:04;-1.30;99.90
22430;DHT22;11382;48.086;11.632;2024-01-30T02:37:32;-1.30;99.90
22430;DHT22;11382;48.086;11.632;2024-01-30T02:40:01;-1.20;99.90
22430;DHT22;11382;48.086;11.632;2024-01-30T02:42:30;-1.20;99.90
22430;DHT22;11382;48.086;11.632;2024-01-30T02:44:58;-1.10;99.90
22430;DHT22;11382;48.086;11.632;2024-01-30T02:47:26;-1.10;99.90
22430;DHT22;11382;48.086;11.632;2024-01-30T02:49:54;-1.00;99.90
22430;DHT22;11382;48.086;11.632;2024-01-30T02:52:22;-1.10;99.90
22430;DHT22;11382;48.086;11.632;2024-01-30T02:54:51;-1.10;99.90
22430;DHT22;11382;48.086;11.632;2024-01-30T02:57:20;-1.10;99.90
22430;DHT22;11382;48.086;11.632;2024-01-30T02:59:48;-1.10;99.90
22430;DHT22;11382;48.086;11.632;2024-01-30T03:02:16;-1.10;99.90
22430;DHT22;11382;48.086;11.632;2024-01-30T03:04:45;-1.10;99.90
22430;DHT22;11382;48.086;11.632;2024-01-30T03:07:13;-1.10;99.90
22430;DHT22;11382;48.086;11.632;2024-01-30T03:09:42;-1.10;99.90
22430;DHT22;11382;48.086;11.632;2024-01-30T03:12:10;-1.00;99.90
22430;DHT22;11382;48.086;11.632;2024-01-30T03:14:40;-1.10;99.90
22430;DHT22;11382;48.086;11.632;2024-01-30T03:17:08;-1.20;99.90
22430;DHT22;11382;48.086;11.632;2024-01-30T03:19:36;-1.20;99.90
22430;DHT22;11382;48.086;11.632;2024-01-30T03:22:04;-1.20;99.90
22430;DHT22;11382;48.086;11.632;2024-01-30T03:24:32;-1.20;99.90
22430;DHT22;11382;48.086;11.632;2024-01-30T03:27:00;-1.10;99.90
22430;DHT22;11382;48.086;11.632;2024-01-30T03:29:28;-1.10;99.90
22430;DHT22;11382;48.086;11.632;2024-01-30T03:31:57;-1.10;99.90
22430;DHT22;11382;48.086;11.632;2024-01-30T03:34:25;-1.10;99.90
22430;DHT22;11382;48.086;11.632;2024-01-30T03:36:54;-1.10;99.90
22430;DHT22;11382;48.086;11.632;2024-01-30T03:39:23;-1.10;99.90
22430;DHT22;11382;48.086;11.632;2024-01-30T03:41:51;-1.20;99.90
22430;DHT22;11382;48.086;11.632;2024-01-30T03:44:19;-1.10;99.90
22430;DHT22;11382;48.086;11.632;2024-01-30T03:46:47;-1.00;99.90
22430;DHT22;11382;48.086;11.632;2024-01-30T03:49:17;-1.10;99.90
22430;DHT22;11382;48.086;11.632;2024-01-30T03:51:45;-1.20;99.90
22430;DHT22;11382;48.086;11.632;2024-01-30T03:54:14;-1.10;99.90
22430;DHT22;11382;48.086;11.632;2024-01-30T03:56:43;-1.10;99.90
22430;DHT22;11382;48.086;11.632;2024-01-30T03:59:11;-1.00;99.90
22430;DHT22;11382;48.086;11.632;2024-01-30T04:01:39;-1.10;99.90
22430;DHT22;11382;48.086;11.632;2024-01-30T04:04:07;-1.30;99.90
22430;DHT22;11382;48.086;11.632;2024-01-30T04:06:36;-1.30;99.90
22430;DHT22;11382;48.086;11.632;2024-01-30T04:09:04;-1.30;99.90
22430;DHT22;11382;48.086;11.632;2024-01-30T04:11:32;-1.10;99.90
22430;DHT22;11382;48.086;11.632;2024-01-30T04:14:01;-1.00;99.90
22430;DHT22;11382;48.086;11.632;2024-01-30T04:16:28;-1.00;99.90
22430;DHT22;11382;48.086;11.632;2024-01-30T04:18:57;-1.00;99.90
22430;DHT22;11382;48.086;11.632;2024-01-30T04:21:26;-1.00;99.90
22430;DHT22;11382;48.086;11.632;2024-01-30T04:23:55;-0.90;99.90
22430;DHT22;11382;48.086;11.632;2024-01-30T04:26:24;-0.90;99.90
22430;DHT22;11382;48.086;11.632;2024-01-30T04:28:52;-1.00;99.90
22430;DHT22;11382;48.086;11.632;2024-01-30T04:31:20;-1.20;99.90
22430;DHT22;11382;48.086;11.632;2024-01-30T04:33:48;-1.20;99.90
22430;DHT22;11382;48.086;11.632;2024-01-30T04:36:17;-1.10;99.90
22430;DHT22;11382;48.086;11.632;2024-01-30T04:38:45;-1.10;99.90
22430;DHT22;11382;48.086;11.632;2024-01-30T04:41:14;-1.30;99.90
22430;DHT22;11382;48.086;11.632;2024-01-30T04:43:42;-1.40;99.90
22430;DHT22;11382;48.086;11.632;2024-01-30T04:46:10;-1.50;99.90
22430;DHT22;11382;48.086;11.632;2024-01-30T04:48:38;-1.50;99.90
22430;DHT22;11382;48.086;11.632;2024-01-30T04:51:06;-1.50;99.90
22430;DHT22;11382;48.086;11.632;2024-01-30T04:53:34;-1.50;99.90
22430;DHT22;11382;48.086;11.632;2024-01-30T04:56:03;-1.50;99.90
22430;DHT22;11382;48.086;11.632;2024-01-30T04:58:33;-1.50;99.90
22430;DHT22;11382;48.086;11.632;2024-01-30T05:01:02;-1.40;99.90
22430;DHT22;11382;48.086;11.632;2024-01-30T05:03:33;-1.40;99.90
22430;DHT22;11382;48.086;11.632;2024-01-30T05:06:01;-1.40;99.90
22430;DHT22;11382;48.086;11.632;2024-01-30T05:08:29;-1.50;99.90
22430;DHT22;11382;48.086;11.632;2024-01-30T05:11:00;-1.60;99.90
22430;DHT22;11382;48.086;11.632;2024-01-30T05:13:30;-1.60;99.90
22430;DHT22;11382;48.086;11.632;2024-01-30T05:16:02;-1.60;99.90
22430;DHT22;11382;48.086;11.632;2024-01-30T05:18:30;-1.60;99.90
22430;DHT22;11382;48.086;11.632;2024-01-30T05:20:58;-1.60;99.90
22430;DHT22;11382;48.086;11.632;2024-01-30T05:23:26;-1.60;99.90
22430;DHT22;11382;48.086;11.632;2024-01-30T05:25:54;-1.60;99.90
22430;DHT22;11382;48.086;11.632;2024-01-30T05:28:22;-1.60;99.90
22430;DHT22;11382;48.086;11.632;2024-01-30T05:30:50;-1.50;99.90
22430;DHT22;11382;48.086;11.632;2024-01-30T05:33:20;-1.30;99.90
22430;DHT22;11382;48.086;11.632;2024-01-30T05:35:48;-1.10;99.90
22430;DHT22;11382;48.086;11.632;2024-01-30T05:38:16;-1.10;99.90
22430;DHT22;11382;48.086;11.632;2024-01-30T05:40:44;-1.00;99.90
22430;DHT22;11382;48.086;11.632;2024-01-30T05:43:12;-1.20;99.90
22430;DHT22;11382;48.086;11.632;2024-01-30T05:45:41;-1.20;99.90
22430;DHT22;11382;48.086;11.632;2024-01-30T05:48:09;-1.30;99.90
22430;DHT22;11382;48.086;11.632;2024-01-30T05:50:38;-1.40;99.90
22430;DHT22;11382;48.086;11.632;2024-01-30T05:53:06;-1.40;99.90
22430;DHT22;11382;48.086;11.632;2024-01-30T05:55:34;-1.50;99.90
22430;DHT22;11382;48.086;11.632;2024-01-30T05:58:03;-1.50;99.90
22430;DHT22;11382;48.086;11.632;2024-01-30T06:00:31;-1.40;99.90
22430;DHT22;11382;48.086;11.632;2024-01-30T06:02:59;-1.40;99.90
22430;DHT22;11382;48.086;11.632;2024-01-30T06:05:27;-1.30;99.90
22430;DHT22;11382;48.086;11.632;2024-01-30T06:07:57;-1.40;99.90
22430;DHT22;11382;48.086;11.632;2024-01-30T06:10:25;-1.50;99.90
22430;DHT22;11382;48.086;11.632;2024-01-30T06:12:53;-1.60;99.90
22430;DHT22;11382;48.086;11.632;2024-01-30T06:15:21;-1.70;99.90
22430;DHT22;11382;48.086;11.632;2024-01-30T06:17:49;-1.70;99.90
22430;DHT22;11382;48.086;11.632;2024-01-30T06:20:17;-1.60;99.90
22430;DHT22;11382;48.086;11.632;2024-01-30T06:22:45;-1.60;99.90
22430;DHT22;11382;48.086;11.632;2024-01-30T06:25:15;-1.70;99.90
22430;DHT22;11382;48.086;11.632;2024-01-30T06:27:43;-1.70;99.90
22430;DHT22;11382;48.086;11.632;2024-01-30T06:30:12;-1.70;99.90
22430;DHT22;11382;48.086;11.632;2024-01-30T06:32:40;-1.70;99.90
22430;DHT22;11382;48.086;11.632;2024-01-30T06:35:08;-1.80;99.90
22430;DHT22;11382;48.086;11.632;2024-01-30T06:37:37;-1.70;99.90
22430;DHT22;11382;48.086;11.632;2024-01-30T06:40:06;-1.70;99.90
22430;DHT22;11382;48.086;11.632;2024-01-30T06:42:36;-1.70;99.90
22430;DHT22;11382;48.086;11.632;2024-01-30T06:45:05;-1.70;99.90
22430;DHT22;11382;48.086;11.632;2024-01-30T06:47:33;-1.70;99.90
22430;DHT22;11382;48.086;11.632;2024-01-30T06:50:01;-1.70;99.90
22430;DHT22;11382;48.086;11.632;2024-01-30T06:52:30;-1.70;99.90
22430;DHT22;11382;48.086;11.632;2024-01-30T06:54:58;-1.70;99.90
22430;DHT22;11382;48.086;11.632;2024-01-30T06:57:26;-1.60;99.90
22430;DHT22;11382;48.086;11.632;2024-01-30T06:59:56;-1.60;99.90
22430;DHT22;11382;48.086;11.632;2024-01-30T07:02:24;-1.60;99.90
22430;DHT22;11382;48.086;11.632;2024-01-30T07:04:52;-1.50;99.90
22430;DHT22;11382;48.086;11.632;2024-01-30T07:07:20;-1.40;99.90
22430;DHT22;11382;48.086;11.632;2024-01-30T07:09:48;-1.40;99.90
22430;DHT22;11382;48.086;11.632;2024-01-30T07:12:19;-1.40;99.90
22430;DHT22;11382;48.086;11.632;2024-01-30T07:14:47;-1.20;99.90
22430;DHT22;11382;48.086;11.632;2024-01-30T07:17:17;-1.10;99.90
22430;DHT22;11382;48.086;11.632;2024-01-30T07:19:45;-0.90;99.90
22430;DHT22;11382;48.086;11.632;2024-01-30T07:22:13;-0.80;99.90
22430;DHT22;11382;48.086;11.632;2024-01-30T07:24:42;-0.70;99.90
22430;DHT22;11382;48.086;11.632;2024-01-30T07:27:14;-0.70;99.90
22430;DHT22;11382;48.086;11.632;2024-01-30T07:29:44;-0.70;99.90
22430;DHT22;11382;48.086;11.632;2024-01-30T07:32:12;-0.60;99.90
22430;DHT22;11382;48.086;11.632;2024-01-30T07:34:41;-0.50;99.90
22430;DHT22;11382;48.086;11.632;2024-01-30T07:37:28;-0.40;99.90
22430;DHT22;11382;48.086;11.632;2024-01-30T07:39:57;-0.30;99.90
22430;DHT22;11382;48.086;11.632;2024-01-30T07:42:25;-0.10;99.90
22430;DHT22;11382;48.086;11.632;2024-01-30T07:44:53;0.10;99.90
22430;DHT22;11382;48.086;11.632;2024-01-30T07:47:21;0.10;99.90
22430;DHT22;11382;48.086;11.632;2024-01-30T07:49:50;0.30;99.90
22430;DHT22;11382;48.086;11.632;2024-01-30T07:52:19;0.60;99.90
22430;DHT22;11382;48.086;11.632;2024-01-30T07:54:47;0.70;99.90
22430;DHT22;11382;48.086;11.632;2024-01-30T07:57:16;0.90;99.90
22430;DHT22;11382;48.086;11.632;2024-01-30T07:59:44;1.00;99.90
22430;DHT22;11382;48.086;11.632;2024-01-30T08:02:13;1.20;99.90
22430;DHT22;11382;48.086;11.632;2024-01-30T08:04:41;1.40;99.90
22430;DHT22;11382;48.086;11.632;2024-01-30T08:07:11;1.50;99.90
22430;DHT22;11382;48.086;11.632;2024-01-30T08:09:39;1.70;99.90
22430;DHT22;11382;48.086;11.632;2024-01-30T08:12:07;2.00;99.90
22430;DHT22;11382;48.086;11.632;2024-01-30T08:14:35;2.30;99.90
22430;DHT22;11382;48.086;11.632;2024-01-30T08:17:03;2.60;99.90
22430;DHT22;11382;48.086;11.632;2024-01-30T08:19:31;3.00;99.90
22430;DHT22;11382;48.086;11.632;2024-01-30T08:22:00;3.30;99.90
22430;DHT22;11382;48.086;11.632;2024-01-30T08:24:29;3.80;99.90
22430;DHT22;11382;48.086;11.632;2024-01-30T08:26:57;4.10;99.90
22430;DHT22;11382;48.086;11.632;2024-01-30T08:29:27;4.40;99.90
22430;DHT22;11382;48.086;11.632;2024-01-30T08:31:55;4.90;99.90
22430;DHT22;11382;48.086;11.632;2024-01-30T08:34:25;5.50;99.90
22430;DHT22;11382;48.086;11.632;2024-01-30T08:36:54;6.40;99.90
22430;DHT22;11382;48.086;11.632;2024-01-30T08:39:22;7.70;99.90
22430;DHT22;11382;48.086;11.632;2024-01-30T08:41:51;9.00;99.90
22430;DHT22;11382;48.086;11.632;2024-01-30T08:44:19;10.20;99.90
22430;DHT22;11382;48.086;11.632;2024-01-30T08:46:47;11.30;99.90
22430;DHT22;11382;48.086;11.632;2024-01-30T08:49:16;12.20;99.90
22430;DHT22;11382;48.086;11.632;2024-01-30T08:51:45;12.90;98.60
22430;DHT22;11382;48.086;11.632;2024-01-30T08:54:14;13.40;95.60
22430;DHT22;11382;48.086;11.632;2024-01-30T08:56:42;13.50;92.30
22430;DHT22;11382;48.086;11.632;2024-01-30T08:59:11;13.60;92.00
22430;DHT22;11382;48.086;11.632;2024-01-30T09:01:40;13.90;93.10
22430;DHT22;11382;48.086;11.632;2024-01-30T09:04:21;14.50;90.20
22430;DHT22;11382;48.086;11.632;2024-01-30T09:06:52;14.40;87.70
22430;DHT22;11382;48.086;11.632;2024-01-30T09:09:20;14.30;87.60
22430;DHT22;11382;48.086;11.632;2024-01-30T09:11:48;14.50;87.60
22430;DHT22;11382;48.086;11.632;2024-01-30T09:14:17;14.80;87.90
22430;DHT22;11382;48.086;11.632;2024-01-30T09:16:46;15.40;86.60
22430;DHT22;11382;48.086;11.632;2024-01-30T09:19:15;16.10;84.50
22430;DHT22;11382;48.086;11.632;2024-01-30T09:21:44;16.30;81.60
22430;DHT22;11382;48.086;11.632;2024-01-30T09:24:12;17.00;78.30
22430;DHT22;11382;48.086;11.632;2024-01-30T09:26:40;17.90;74.80
22430;DHT22;11382;48.086;11.632;2024-01-30T09:29:08;18.40;73.90
22430;DHT22;11382;48.086;11.632;2024-01-30T09:31:38;19.00;69.90
22430;DHT22;11382;48.086;11.632;2024-01-30T09:34:06;19.20;66.20
22430;DHT22;11382;48.086;11.632;2024-01-30T09:36:34;19.50;67.10
22430;DHT22;11382;48.086;11.632;2024-01-30T09:39:02;19.90;64.30
22430;DHT22;11382;48.086;11.632;2024-01-30T09:41:32;20.20;60.80
22430;DHT22;11382;48.086;11.632;2024-01-30T09:44:01;21.10;61.90
22430;DHT22;11382;48.086;11.632;2024-01-30T09:46:32;21.60;59.30
22430;DHT22;11382;48.086;11.632;2024-01-30T09:49:02;21.80;57.30
22430;DHT22;11382;48.086;11.632;2024-01-30T09:51:31;22.40;56.70
22430;DHT22;11382;48.086;11.632;2024-01-30T09:53:59;22.30;53.80
22430;DHT22;11382;48.086;11.632;2024-01-30T09:56:28;22.80;53.00
22430;DHT22;11382;48.086;11.632;2024-01-30T09:58:56;22.80;51.70
22430;DHT22;11382;48.086;11.632;2024-01-30T10:01:25;23.10;51.60
22430;DHT22;11382;48.086;11.632;2024-01-30T10:03:54;23.20;51.30
22430;DHT22;11382;48.086;11.632;2024-01-30T10:06:24;22.90;50.30
22430;DHT22;11382;48.086;11.632;2024-01-30T10:08:52;23.00;50.60
22430;DHT22;11382;48.086;11.632;2024-01-30T10:11:21;23.30;50.40
22430;DHT22;11382;48.086;11.632;2024-01-30T10:13:50;23.50;49.10
22430;DHT22;11382;48.086;11.632;2024-01-30T10:16:18;23.40;48.30
22430;DHT22;11382;48.086;11.632;2024-01-30T10:18:47;23.40;48.80
22430;DHT22;11382;48.086;11.632;2024-01-30T10:21:15;23.40;47.10
22430;DHT22;11382;48.086;11.632;2024-01-30T10:23:44;22.80;46.70
22430;DHT22;11382;48.086;11.632;2024-01-30T10:26:12;22.50;49.00
22430;DHT22;11382;48.086;11.632;2024-01-30T10:28:40;22.90;48.60
22430;DHT22;11382;48.086;11.632;2024-01-30T10:31:09;23.10;47.90
22430;DHT22;11382;48.086;11.632;2024-01-30T10:33:37;23.10;47.80
22430;DHT22;11382;48.086;11.632;2024-01-30T10:36:06;23.80;48.10
22430;DHT22;11382;48.086;11.632;2024-01-30T10:38:34;24.00;46.30
22430;DHT22;11382;48.086;11.632;2024-01-30T10:41:04;23.90;47.50
22430;DHT22;11382;48.086;11.632;2024-01-30T10:43:35;23.90;46.50
22430;DHT22;11382;48.086;11.632;2024-01-30T10:46:10;24.40;46.20
22430;DHT22;11382;48.086;11.632;2024-01-30T10:48:42;24.00;45.60
22430;DHT22;11382;48.086;11.632;2024-01-30T10:51:13;24.00;46.60
22430;DHT22;11382;48.086;11.632;2024-01-30T10:53:44;23.00;46.80
22430;DHT22;11382;48.086;11.632;2024-01-30T10:56:16;21.40;47.70
22430;DHT22;11382;48.086;11.632;2024-01-30T10:58:46;20.20;50.60
22430;DHT22;11382;48.086;11.632;2024-01-30T11:01:14;19.60;51.50
22430;DHT22;11382;48.086;11.632;2024-01-30T11:03:43;19.10;52.80
22430;DHT22;11382;48.086;11.632;2024-01-30T11:06:11;18.60;54.70
22430;DHT22;11382;48.086;11.632;2024-01-30T11:08:40;18.30;56.00
22430;DHT22;11382;48.086;11.632;2024-01-30T11:11:09;18.70;56.00
22430;DHT22;11382;48.086;11.632;2024-01-30T11:13:42;19.40;56.50
22430;DHT22;11382;48.086;11.632;2024-01-30T11:16:11;19.70;52.30
22430;DHT22;11382;48.086;11.632;2024-01-30T11:18:40;20.10;52.30
22430;DHT22;11382;48.086;11.632;2024-01-30T11:21:07;20.30;52.10
22430;DHT22;11382;48.086;11.632;2024-01-30T11:23:35;20.50;52.00
22430;DHT22;11382;48.086;11.632;2024-01-30T11:26:04;20.80;51.10
22430;DHT22;11382;48.086;11.632;2024-01-30T11:28:32;20.90;51.60
22430;DHT22;11382;48.086;11.632;2024-01-30T11:31:07;21.40;50.30
22430;DHT22;11382;48.086;11.632;2024-01-30T11:33:35;21.60;50.40
22430;DHT22;11382;48.086;11.632;2024-01-30T11:36:04;21.70;48.30
22430;DHT22;11382;48.086;11.632;2024-01-30T11:38:34;21.70;49.20
22430;DHT22;11382;48.086;11.632;2024-01-30T11:41:03;21.90;49.80
22430;DHT22;11382;48.086;11.632;2024-01-30T11:43:32;22.00;48.70
22430;DHT22;11382;48.086;11.632;2024-01-30T11:46:02;21.70;49.20
22430;DHT22;11382;48.086;11.632;2024-01-30T11:48:31;21.60;48.10
22430;DHT22;11382;48.086;11.632;2024-01-30T11:51:00;21.60;49.30
22430;DHT22;11382;48.086;11.632;2024-01-30T11:53:28;20.70;50.60
22430;DHT22;11382;48.086;11.632;2024-01-30T11:55:56;20.30;49.20
22430;DHT22;11382;48.086;11.632;2024-01-30T11:58:25;20.60;48.20
22430;DHT22;11382;48.086;11.632;2024-01-30T12:00:54;20.60;49.60
22430;DHT22;11382;48.086;11.632;2024-01-30T12:03:23;21.20;50.00
22430;DHT22;11382;48.086;11.632;2024-01-30T12:05:56;21.40;49.00
22430;DHT22;11382;48.086;11.632;2024-01-30T12:08:26;21.50;49.20
22430;DHT22;11382;48.086;11.632;2024-01-30T12:10:57;21.20;48.80
22430;DHT22;11382;48.086;11.632;2024-01-30T12:13:28;20.70;48.40
22430;DHT22;11382;48.086;11.632;2024-01-30T12:16:00;19.20;49.70
22430;DHT22;11382;48.086;11.632;2024-01-30T12:18:29;19.70;50.90
22430;DHT22;11382;48.086;11.632;2024-01-30T12:20:59;20.10;50.00
22430;DHT22;11382;48.086;11.632;2024-01-30T12:23:28;18.90;49.60
22430;DHT22;11382;48.086;11.632;2024-01-30T12:25:57;20.00;49.60
22430;DHT22;11382;48.086;11.632;2024-01-30T12:28:25;19.40;49.40
22430;DHT22;11382;48.086;11.632;2024-01-30T12:30:55;20.00;50.70
22430;DHT22;11382;48.086;11.632;2024-01-30T12:33:26;20.10;50.30
22430;DHT22;11382;48.086;11.632;2024-01-30T12:35:55;19.80;51.00
22430;DHT22;11382;48.086;11.632;2024-01-30T12:38:31;19.40;52.20
22430;DHT22;11382;48.086;11.632;2024-01-30T12:40:59;18.40;51.30
22430;DHT22;11382;48.086;11.632;2024-01-30T12:43:27;18.30;52.00
22430;DHT22;11382;48.086;11.632;2024-01-30T12:46:05;18.00;52.30
22430;DHT22;11382;48.086;11.632;2024-01-30T12:48:34;17.70;52.20
22430;DHT22;11382;48.086;11.632;2024-01-30T12:51:02;18.00;53.10
22430;DHT22;11382;48.086;11.632;2024-01-30T12:53:32;17.80;54.50
22430;DHT22;11382;48.086;11.632;2024-01-30T12:56:00;17.60;53.70
22430;DHT22;11382;48.086;11.632;2024-01-30T12:58:29;17.60;54.80
22430;DHT22;11382;48.086;11.632;2024-01-30T13:00:57;17.50;55.10
22430;DHT22;11382;48.086;11.632;2024-01-30T13:03:25;17.50;55.40
22430;DHT22;11382;48.086;11.632;2024-01-30T13:05:53;17.40;54.60
22430;DHT22;11382;48.086;11.632;2024-01-30T13:08:21;17.40;55.10
22430;DHT22;11382;48.086;11.632;2024-01-30T13:10:51;17.30;54.30
22430;DHT22;11382;48.086;11.632;2024-01-30T13:13:19;17.10;53.40
22430;DHT22;11382;48.086;11.632;2024-01-30T13:15:48;16.70;52.40
22430;DHT22;11382;48.086;11.632;2024-01-30T13:18:16;16.90;53.40
22430;DHT22;11382;48.086;11.632;2024-01-30T13:20:44;17.10;52.70
22430;DHT22;11382;48.086;11.632;2024-01-30T13:23:12;17.20;52.90
22430;DHT22;11382;48.086;11.632;2024-01-30T13:25:40;17.30;52.40
22430;DHT22;11382;48.086;11.632;2024-01-30T13:28:09;16.80;51.50
22430;DHT22;11382;48.086;11.632;2024-01-30T13:30:37;16.70;52.70
22430;DHT22;11382;48.086;11.632;2024-01-30T13:33:06;16.90;53.10
22430;DHT22;11382;48.086;11.632;2024-01-30T13:35:34;17.20;53.90
22430;DHT22;11382;48.086;11.632;2024-01-30T13:38:02;16.70;53.00
22430;DHT22;11382;48.086;11.632;2024-01-30T13:40:31;16.70;54.30
22430;DHT22;11382;48.086;11.632;2024-01-30T13:42:59;16.80;55.60
22430;DHT22;11382;48.086;11.632;2024-01-30T13:45:28;16.90;54.60
22430;DHT22;11382;48.086;11.632;2024-01-30T13:47:56;16.80;55.40
22430;DHT22;11382;48.086;11.632;2024-01-30T13:50:26;16.60;54.80
22430;DHT22;11382;48.086;11.632;2024-01-30T13:52:54;16.60;54.90
22430;DHT22;11382;48.086;11.632;2024-01-30T13:55:24;16.50;56.00
22430;DHT22;11382;48.086;11.632;2024-01-30T13:57:52;16.20;55.90
22430;DHT22;11382;48.086;11.632;2024-01-30T14:00:20;16.10;56.50
22430;DHT22;11382;48.086;11.632;2024-01-30T14:02:50;16.00;57.80
22430;DHT22;11382;48.086;11.632;2024-01-30T14:05:21;15.80;56.50
22430;DHT22;11382;48.086;11.632;2024-01-30T14:07:49;15.90;57.70
22430;DHT22;11382;48.086;11.632;2024-01-30T14:10:18;15.90;57.60
22430;DHT22;11382;48.086;11.632;2024-01-30T14:12:46;15.80;56.50
22430;DHT22;11382;48.086;11.632;2024-01-30T14:15:15;15.70;57.40
22430;DHT22;11382;48.086;11.632;2024-01-30T14:17:57;15.50;57.90
22430;DHT22;11382;48.086;11.632;2024-01-30T14:20:26;15.40;58.50
22430;DHT22;11382;48.086;11.632;2024-01-30T14:22:54;15.30;58.80
22430;DHT22;11382;48.086;11.632;2024-01-30T14:25:23;15.20;59.60
22430;DHT22;11382;48.086;11.632;2024-01-30T14:27:52;15.10;59.50
22430;DHT22;11382;48.086;11.632;2024-01-30T14:30:20;14.90;59.40
22430;DHT22;11382;48.086;11.632;2024-01-30T14:32:49;15.00;59.90
22430;DHT22;11382;48.086;11.632;2024-01-30T14:35:18;14.90;59.10
22430;DHT22;11382;48.086;11.632;2024-01-30T14:37:47;14.70;58.60
22430;DHT22;11382;48.086;11.632;2024-01-30T14:40:15;14.60;59.90
22430;DHT22;11382;48.086;11.632;2024-01-30T14:42:43;14.50;60.20
22430;DHT22;11382;48.086;11.632;2024-01-30T14:45:11;14.40;61.30
22430;DHT22;11382;48.086;11.632;2024-01-30T14:47:39;14.30;61.60
22430;DHT22;11382;48.086;11.632;2024-01-30T14:50:08;14.20;62.10
22430;DHT22;11382;48.086;11.632;2024-01-30T14:52:38;14.10;62.30
22430;DHT22;11382;48.086;11.632;2024-01-30T14:55:07;13.90;63.30
22430;DHT22;11382;48.086;11.632;2024-01-30T14:57:36;13.80;64.00
22430;DHT22;11382;48.086;11.632;2024-01-30T15:00:06;13.70;64.50
22430;DHT22;11382;48.086;11.632;2024-01-30T15:02:34;13.70;63.20
22430;DHT22;11382;48.086;11.632;2024-01-30T15:05:03;13.70;64.20
22430;DHT22;11382;48.086;11.632;2024-01-30T15:07:31;13.60;64.10
22430;DHT22;11382;48.086;11.632;2024-01-30T15:10:08;13.60;64.60
22430;DHT22;11382;48.086;11.632;2024-01-30T15:12:37;13.60;65.50
22430;DHT22;11382;48.086;11.632;2024-01-30T15:15:07;13.50;66.10
22430;DHT22;11382;48.086;11.632;2024-01-30T15:17:37;13.30;66.80
22430;DHT22;11382;48.086;11.632;2024-01-30T15:20:06;13.20;66.70
22430;DHT22;11382;48.086;11.632;2024-01-30T15:22:34;13.10;68.30
22430;DHT22;11382;48.086;11.632;2024-01-30T15:25:04;13.00;68.30
22430;DHT22;11382;48.086;11.632;2024-01-30T15:27:34;13.00;68.40